sensor_id;sensor_type;location;lat;lon;timestamp;pressure;altitude;pressure_sealevel;temperature;humidity
77147;BME280;66121;52.584;9.694;2023-07-28T00:00:03;99936.00;;;17.35;100.00
77147;BME280;66121;52.584;9.694;2023-07-28T00:02:29;99927.75;;;17.32;100.00
77147;BME280;66121;52.584;9.694;2023-07-28T00:04:54;99884.28;;;16.97;100.00
77147;BME280;66121;52.584;9.694;2023-07-28T00:07:20;99922.41;;;17.25;100.00
77147;BME280;66121;52.584;9.694;2023-07-28T00:09:45;99921.97;;;17.26;100.00
77147;BME280;66121;52.584;9.694;2023-07-28T00:12:10;99931.09;;;17.27;100.00
77147;BME280;66121;52.584;9.694;2023-07-28T00:14:35;99923.84;;;17.29;100.00
77147;BME280;66121;52.584;9.694;2023-07-28T00:17:01;99918.28;;;17.17;100.00
77147;BME280;66121;52.584;9.694;2023-07-28T00:19:26;99933.22;;;17.35;100.00
77147;BME280;66121;52.584;9.694;2023-07-28T00:21:52;99938.13;;;17.31;100.00
77147;BME280;66121;52.584;9.694;2023-07-28T00:24:18;99928.66;;;17.29;100.00
77147;BME280;66121;52.584;9.694;2023-07-28T00:26:43;99930.31;;;17.26;100.00
77147;BME280;66121;52.584;9.694;2023-07-28T00:29:09;99927.53;;;17.26;100.00
77147;BME280;66121;52.584;9.694;2023-07-28T00:31:34;99898.63;;;17.08;100.00
77147;BME280;66121;52.584;9.694;2023-07-28T00:34:00;99883.81;;;16.98;100.00
77147;BME280;66121;52.584;9.694;2023-07-28T00:36:26;99934.44;;;17.22;100.00
77147;BME280;66121;52.584;9.694;2023-07-28T00:38:51;99931.53;;;17.25;100.00
77147;BME280;66121;52.584;9.694;2023-07-28T00:41:16;99930.78;;;17.25;100.00
77147;BME280;66121;52.584;9.694;2023-07-28T00:43:42;99926.41;;;17.24;100.00
77147;BME280;66121;52.584;9.694;2023-07-28T00:46:08;99909.47;;;17.06;100.00
77147;BME280;66121;52.584;9.694;2023-07-28T00:48:34;99933.56;;;17.25;100.00
77147;BME280;66121;52.584;9.694;2023-07-28T00:51:00;99943.06;;;17.27;100.00
77147;BME280;66121;52.584;9.694;2023-07-28T00:53:25;99942.13;;;17.30;100.00
77147;BME280;66121;52.584;9.694;2023-07-28T00:55:51;99922.50;;;17.21;100.00
77147;BME280;66121;52.584;9.694;2023-07-28T00:58:17;99915.94;;;17.15;100.00
77147;BME280;66121;52.584;9.694;2023-07-28T01:00:42;99896.63;;;17.08;100.00
77147;BME280;66121;52.584;9.694;2023-07-28T01:03:07;99930.41;;;17.23;100.00
77147;BME280;66121;52.584;9.694;2023-07-28T01:05:46;99915.94;;;17.15;100.00
77147;BME280;66121;52.584;9.694;2023-07-28T01:08:49;99910.34;;;17.15;100.00
77147;BME280;66121;52.584;9.694;2023-07-28T01:11:15;99897.09;;;17.07;100.00
77147;BME280;66121;52.584;9.694;2023-07-28T01:13:40;99908.25;;;17.19;100.00
77147;BME280;66121;52.584;9.694;2023-07-28T01:16:06;99906.25;;;17.07;100.00
77147;BME280;66121;52.584;9.694;2023-07-28T01:18:31;99909.91;;;17.17;100.00
77147;BME280;66121;52.584;9.694;2023-07-28T01:21:01;99918.72;;;17.15;100.00
77147;BME280;66121;52.584;9.694;2023-07-28T01:23:54;99897.66;;;17.02;100.00
77147;BME280;66121;52.584;9.694;2023-07-28T01:26:34;99928.75;;;17.13;100.00
77147;BME280;66121;52.584;9.694;2023-07-28T01:29:00;99927.53;;;17.14;100.00
77147;BME280;66121;52.584;9.694;2023-07-28T01:31:25;99925.63;;;17.11;100.00
77147;BME280;66121;52.584;9.694;2023-07-28T01:33:51;99923.53;;;17.15;100.00
77147;BME280;66121;52.584;9.694;2023-07-28T01:36:16;99926.41;;;17.11;100.00
77147;BME280;66121;52.584;9.694;2023-07-28T01:38:41;99921.63;;;17.12;100.00
77147;BME280;66121;52.584;9.694;2023-07-28T01:41:06;99925.22;;;17.12;100.00
77147;BME280;66121;52.584;9.694;2023-07-28T01:43:32;99911.38;;;17.09;100.00
77147;BME280;66121;52.584;9.694;2023-07-28T01:45:57;99914.94;;;17.09;100.00
77147;BME280;66121;52.584;9.694;2023-07-28T01:48:22;99920.28;;;17.16;100.00
77147;BME280;66121;52.584;9.694;2023-07-28T01:50:49;99930.31;;;17.14;100.00
77147;BME280;66121;52.584;9.694;2023-07-28T01:53:14;99904.91;;;16.99;100.00
77147;BME280;66121;52.584;9.694;2023-07-28T01:55:39;99931.09;;;17.14;100.00
77147;BME280;66121;52.584;9.694;2023-07-28T01:58:04;99928.00;;;17.12;100.00
77147;BME280;66121;52.584;9.694;2023-07-28T02:00:30;99920.19;;;17.07;100.00
77147;BME280;66121;52.584;9.694;2023-07-28T02:02:55;99938.69;;;17.14;100.00
77147;BME280;66121;52.584;9.694;2023-07-28T02:05:23;99939.91;;;17.13;100.00
77147;BME280;66121;52.584;9.694;2023-07-28T02:07:48;99911.69;;;16.98;100.00
77147;BME280;66121;52.584;9.694;2023-07-28T02:10:13;99932.00;;;17.11;100.00
77147;BME280;66121;52.584;9.694;2023-07-28T02:12:39;99878.13;;;16.77;100.00
77147;BME280;66121;52.584;9.694;2023-07-28T02:15:05;99942.03;;;17.21;100.00
77147;BME280;66121;52.584;9.694;2023-07-28T02:17:31;99917.03;;;17.05;100.00
77147;BME280;66121;52.584;9.694;2023-07-28T02:19:56;99939.16;;;17.12;100.00
77147;BME280;66121;52.584;9.694;2023-07-28T02:22:21;99938.13;;;17.06;100.00
77147;BME280;66121;52.584;9.694;2023-07-28T02:24:47;99943.03;;;17.15;100.00
77147;BME280;66121;52.584;9.694;2023-07-28T02:27:12;99940.69;;;17.13;100.00
77147;BME280;66121;52.584;9.694;2023-07-28T02:29:37;99934.22;;;17.04;100.00
77147;BME280;66121;52.584;9.694;2023-07-28T02:32:03;99939.56;;;17.11;100.00
77147;BME280;66121;52.584;9.694;2023-07-28T02:34:28;99921.16;;;17.01;100.00
77147;BME280;66121;52.584;9.694;2023-07-28T02:36:53;99924.84;;;16.98;100.00
77147;BME280;66121;52.584;9.694;2023-07-28T02:39:19;99923.97;;;17.13;100.00
77147;BME280;66121;52.584;9.694;2023-07-28T02:41:45;99910.25;;;16.94;100.00
77147;BME280;66121;52.584;9.694;2023-07-28T02:44:10;99941.16;;;17.12;100.00
77147;BME280;66121;52.584;9.694;2023-07-28T02:46:36;99943.03;;;17.15;100.00
77147;BME280;66121;52.584;9.694;2023-07-28T02:49:02;99924.66;;;17.05;100.00
77147;BME280;66121;52.584;9.694;2023-07-28T02:51:29;99901.44;;;16.83;100.00
77147;BME280;66121;52.584;9.694;2023-07-28T02:53:54;99936.56;;;17.05;100.00
77147;BME280;66121;52.584;9.694;2023-07-28T02:56:20;99925.53;;;17.02;100.00
77147;BME280;66121;52.584;9.694;2023-07-28T02:58:45;99933.34;;;17.07;100.00
77147;BME280;66121;52.584;9.694;2023-07-28T03:01:11;99925.75;;;16.95;100.00
77147;BME280;66121;52.584;9.694;2023-07-28T03:03:37;99909.22;;;17.00;100.00
77147;BME280;66121;52.584;9.694;2023-07-28T03:06:02;99933.34;;;17.07;100.00
77147;BME280;66121;52.584;9.694;2023-07-28T03:08:27;99952.63;;;17.14;100.00
77147;BME280;66121;52.584;9.694;2023-07-28T03:10:57;99948.72;;;17.11;100.00
77147;BME280;66121;52.584;9.694;2023-07-28T03:13:22;99950.38;;;17.09;100.00
77147;BME280;66121;52.584;9.694;2023-07-28T03:15:47;99941.78;;;17.03;100.00
77147;BME280;66121;52.584;9.694;2023-07-28T03:18:13;99931.75;;;16.93;100.00
77147;BME280;66121;52.584;9.694;2023-07-28T03:20:38;99937.47;;;17.02;100.00
77147;BME280;66121;52.584;9.694;2023-07-28T03:23:03;99949.94;;;17.10;100.00
77147;BME280;66121;52.584;9.694;2023-07-28T03:25:28;99953.28;;;17.05;100.00
77147;BME280;66121;52.584;9.694;2023-07-28T03:27:54;99933.00;;;16.92;100.00
77147;BME280;66121;52.584;9.694;2023-07-28T03:30:19;99962.00;;;17.07;100.00
77147;BME280;66121;52.584;9.694;2023-07-28T03:32:44;99966.00;;;17.06;100.00
77147;BME280;66121;52.584;9.694;2023-07-28T03:35:10;99973.56;;;17.06;100.00
77147;BME280;66121;52.584;9.694;2023-07-28T03:37:35;99965.66;;;17.04;100.00
77147;BME280;66121;52.584;9.694;2023-07-28T03:40:00;99964.09;;;17.03;100.00
77147;BME280;66121;52.584;9.694;2023-07-28T03:42:26;99975.94;;;17.07;100.00
77147;BME280;66121;52.584;9.694;2023-07-28T03:44:51;99984.72;;;17.06;100.00
77147;BME280;66121;52.584;9.694;2023-07-28T03:47:17;99971.13;;;17.08;100.00
77147;BME280;66121;52.584;9.694;2023-07-28T03:49:42;99976.34;;;17.06;100.00
77147;BME280;66121;52.584;9.694;2023-07-28T03:52:07;99975.72;;;17.14;100.00
77147;BME280;66121;52.584;9.694;2023-07-28T03:54:32;99984.50;;;17.13;100.00
77147;BME280;66121;52.584;9.694;2023-07-28T03:56:58;99963.53;;;17.08;100.00
77147;BME280;66121;52.584;9.694;2023-07-28T03:59:23;99968.00;;;17.06;100.00
77147;BME280;66121;52.584;9.694;2023-07-28T04:01:48;99971.56;;;17.06;100.00
77147;BME280;66121;52.584;9.694;2023-07-28T04:04:13;99971.03;;;17.11;100.00
77147;BME280;66121;52.584;9.694;2023-07-28T04:06:46;99972.34;;;17.07;100.00
77147;BME280;66121;52.584;9.694;2023-07-28T04:09:13;99974.81;;;17.05;100.00
77147;BME280;66121;52.584;9.694;2023-07-28T04:11:39;99984.50;;;17.13;100.00
77147;BME280;66121;52.584;9.694;2023-07-28T04:14:05;99976.50;;;17.15;100.00
77147;BME280;66121;52.584;9.694;2023-07-28T04:16:30;99935.22;;;16.85;100.00
77147;BME280;66121;52.584;9.694;2023-07-28T04:18:57;99978.03;;;17.03;100.00
77147;BME280;66121;52.584;9.694;2023-07-28T04:21:22;99990.53;;;17.11;100.00
77147;BME280;66121;52.584;9.694;2023-07-28T04:23:47;99979.28;;;17.02;100.00
77147;BME280;66121;52.584;9.694;2023-07-28T04:26:13;99982.06;;;17.02;100.00
77147;BME280;66121;52.584;9.694;2023-07-28T04:28:38;99981.81;;;16.97;100.00
77147;BME280;66121;52.584;9.694;2023-07-28T04:31:03;100001.69;;;17.11;100.00
77147;BME280;66121;52.584;9.694;2023-07-28T04:33:29;99982.59;;;16.97;100.00
77147;BME280;66121;52.584;9.694;2023-07-28T04:35:54;100005.59;;;17.14;100.00
77147;BME280;66121;52.584;9.694;2023-07-28T04:38:19;99995.66;;;17.13;100.00
77147;BME280;66121;52.584;9.694;2023-07-28T04:40:44;99973.13;;;16.95;100.00
77147;BME280;66121;52.584;9.694;2023-07-28T04:43:10;100009.84;;;17.18;100.00
77147;BME280;66121;52.584;9.694;2023-07-28T04:45:36;100011.50;;;17.16;100.00
77147;BME280;66121;52.584;9.694;2023-07-28T04:48:01;99998.66;;;17.06;100.00
77147;BME280;66121;52.584;9.694;2023-07-28T04:50:27;99991.19;;;17.03;100.00
77147;BME280;66121;52.584;9.694;2023-07-28T04:52:52;99988.81;;;16.89;100.00
77147;BME280;66121;52.584;9.694;2023-07-28T04:55:18;100016.19;;;17.19;100.00
77147;BME280;66121;52.584;9.694;2023-07-28T04:57:43;100008.72;;;17.16;100.00
77147;BME280;66121;52.584;9.694;2023-07-28T05:00:09;100002.91;;;17.10;100.00
77147;BME280;66121;52.584;9.694;2023-07-28T05:02:34;100015.41;;;17.18;100.00
77147;BME280;66121;52.584;9.694;2023-07-28T05:04:59;100009.50;;;17.16;100.00
77147;BME280;66121;52.584;9.694;2023-07-28T05:07:25;99994.91;;;17.12;100.00
77147;BME280;66121;52.584;9.694;2023-07-28T05:09:50;100016.53;;;17.33;100.00
77147;BME280;66121;52.584;9.694;2023-07-28T05:12:15;100017.31;;;17.34;100.00
77147;BME280;66121;52.584;9.694;2023-07-28T05:14:40;100007.28;;;17.24;100.00
77147;BME280;66121;52.584;9.694;2023-07-28T05:17:06;100016.09;;;17.22;100.00
77147;BME280;66121;52.584;9.694;2023-07-28T05:19:31;99999.91;;;17.17;100.00
77147;BME280;66121;52.584;9.694;2023-07-28T05:21:57;100040.31;;;17.38;100.00
77147;BME280;66121;52.584;9.694;2023-07-28T05:24:22;100029.16;;;17.38;100.00
77147;BME280;66121;52.584;9.694;2023-07-28T05:26:47;100042.66;;;17.39;100.00
77147;BME280;66121;52.584;9.694;2023-07-28T05:29:13;100038.28;;;17.38;100.00
77147;BME280;66121;52.584;9.694;2023-07-28T05:31:38;100050.91;;;17.43;100.00
77147;BME280;66121;52.584;9.694;2023-07-28T05:34:04;100055.25;;;17.44;100.00
77147;BME280;66121;52.584;9.694;2023-07-28T05:36:29;100045.00;;;17.41;100.00
77147;BME280;66121;52.584;9.694;2023-07-28T05:38:54;100026.91;;;17.33;100.00
77147;BME280;66121;52.584;9.694;2023-07-28T05:41:22;100048.13;;;17.43;100.00
77147;BME280;66121;52.584;9.694;2023-07-28T05:43:48;100040.53;;;17.44;100.00
77147;BME280;66121;52.584;9.694;2023-07-28T05:46:14;100044.53;;;17.42;100.00
77147;BME280;66121;52.584;9.694;2023-07-28T05:48:39;100040.75;;;17.49;100.00
77147;BME280;66121;52.584;9.694;2023-07-28T05:51:04;100036.97;;;17.43;100.00
77147;BME280;66121;52.584;9.694;2023-07-28T05:53:30;100047.38;;;17.55;100.00
77147;BME280;66121;52.584;9.694;2023-07-28T05:55:55;100041.19;;;17.48;100.00
77147;BME280;66121;52.584;9.694;2023-07-28T05:58:20;100054.41;;;17.60;100.00
77147;BME280;66121;52.584;9.694;2023-07-28T06:00:46;100055.97;;;17.61;100.00
77147;BME280;66121;52.584;9.694;2023-07-28T06:03:11;100058.09;;;17.82;100.00
77147;BME280;66121;52.584;9.694;2023-07-28T06:05:38;100055.63;;;17.84;100.00
77147;BME280;66121;52.584;9.694;2023-07-28T06:08:05;100055.41;;;17.78;100.00
77147;BME280;66121;52.584;9.694;2023-07-28T06:10:30;100018.25;;;17.56;100.00
77147;BME280;66121;52.584;9.694;2023-07-28T06:12:55;100068.47;;;17.81;100.00
77147;BME280;66121;52.584;9.694;2023-07-28T06:15:20;100067.78;;;17.90;100.00
77147;BME280;66121;52.584;9.694;2023-07-28T06:17:46;100077.41;;;18.01;100.00
77147;BME280;66121;52.584;9.694;2023-07-28T06:20:11;100059.50;;;18.12;100.00
77147;BME280;66121;52.584;9.694;2023-07-28T06:22:37;100052.47;;;18.20;100.00
77147;BME280;66121;52.584;9.694;2023-07-28T06:25:02;100060.59;;;18.27;100.00
77147;BME280;66121;52.584;9.694;2023-07-28T06:27:27;100072.31;;;18.34;100.00
77147;BME280;66121;52.584;9.694;2023-07-28T06:29:53;100060.28;;;18.25;100.00
77147;BME280;66121;52.584;9.694;2023-07-28T06:32:18;100064.28;;;18.24;100.00
77147;BME280;66121;52.584;9.694;2023-07-28T06:34:45;100067.19;;;18.20;100.00
77147;BME280;66121;52.584;9.694;2023-07-28T06:37:10;100099.69;;;18.39;100.00
77147;BME280;66121;52.584;9.694;2023-07-28T06:39:36;100100.66;;;18.45;100.00
77147;BME280;66121;52.584;9.694;2023-07-28T06:42:01;100100.44;;;18.52;100.00
77147;BME280;66121;52.584;9.694;2023-07-28T06:44:26;100101.34;;;18.49;100.00
77147;BME280;66121;52.584;9.694;2023-07-28T06:46:51;100069.63;;;18.31;100.00
77147;BME280;66121;52.584;9.694;2023-07-28T06:49:17;100077.34;;;18.39;100.00
77147;BME280;66121;52.584;9.694;2023-07-28T06:51:42;100071.19;;;18.32;100.00
77147;BME280;66121;52.584;9.694;2023-07-28T06:54:07;100071.53;;;18.46;100.00
77147;BME280;66121;52.584;9.694;2023-07-28T06:56:37;100081.00;;;18.49;100.00
77147;BME280;66121;52.584;9.694;2023-07-28T06:59:02;100111.56;;;18.65;100.00
77147;BME280;66121;52.584;9.694;2023-07-28T07:01:28;100104.81;;;18.53;100.00
77147;BME280;66121;52.584;9.694;2023-07-28T07:03:53;100095.78;;;18.49;100.00
77147;BME280;66121;52.584;9.694;2023-07-28T07:06:19;100076.66;;;18.35;100.00
77147;BME280;66121;52.584;9.694;2023-07-28T07:08:44;100115.34;;;18.49;100.00
77147;BME280;66121;52.584;9.694;2023-07-28T07:11:09;100116.44;;;18.52;100.00
77147;BME280;66121;52.584;9.694;2023-07-28T07:13:34;100118.19;;;18.58;100.00
77147;BME280;66121;52.584;9.694;2023-07-28T07:16:00;100110.38;;;18.53;100.00
77147;BME280;66121;52.584;9.694;2023-07-28T07:18:25;100123.16;;;18.54;100.00
77147;BME280;66121;52.584;9.694;2023-07-28T07:20:51;100122.91;;;18.61;100.00
77147;BME280;66121;52.584;9.694;2023-07-28T07:23:16;100099.88;;;18.57;100.00
77147;BME280;66121;52.584;9.694;2023-07-28T07:25:41;100109.94;;;18.89;100.00
77147;BME280;66121;52.584;9.694;2023-07-28T07:28:07;100124.88;;;18.95;100.00
77147;BME280;66121;52.584;9.694;2023-07-28T07:30:33;100107.44;;;18.70;100.00
77147;BME280;66121;52.584;9.694;2023-07-28T07:32:58;100091.38;;;18.61;100.00
77147;BME280;66121;52.584;9.694;2023-07-28T07:35:24;100076.94;;;18.62;100.00
77147;BME280;66121;52.584;9.694;2023-07-28T07:37:49;100086.09;;;18.63;100.00
77147;BME280;66121;52.584;9.694;2023-07-28T07:40:14;100134.47;;;19.07;100.00
77147;BME280;66121;52.584;9.694;2023-07-28T07:42:42;100148.56;;;19.03;100.00
77147;BME280;66121;52.584;9.694;2023-07-28T07:45:09;100148.09;;;18.83;100.00
77147;BME280;66121;52.584;9.694;2023-07-28T07:47:35;100103.13;;;18.43;100.00
77147;BME280;66121;52.584;9.694;2023-07-28T07:50:00;100151.94;;;18.64;100.00
77147;BME280;66121;52.584;9.694;2023-07-28T07:52:25;100161.13;;;18.64;100.00
77147;BME280;66121;52.584;9.694;2023-07-28T07:54:51;100142.34;;;18.52;100.00
77147;BME280;66121;52.584;9.694;2023-07-28T07:57:16;100154.44;;;18.49;100.00
77147;BME280;66121;52.584;9.694;2023-07-28T07:59:41;100155.19;;;18.50;100.00
77147;BME280;66121;52.584;9.694;2023-07-28T08:02:07;100170.66;;;18.54;100.00
77147;BME280;66121;52.584;9.694;2023-07-28T08:04:32;100154.97;;;18.44;100.00
77147;BME280;66121;52.584;9.694;2023-07-28T08:06:57;100172.41;;;18.61;100.00
77147;BME280;66121;52.584;9.694;2023-07-28T08:09:23;100173.97;;;18.62;100.00
77147;BME280;66121;52.584;9.694;2023-07-28T08:11:48;100170.38;;;18.74;100.00
77147;BME280;66121;52.584;9.694;2023-07-28T08:14:14;100175.41;;;18.67;100.00
77147;BME280;66121;52.584;9.694;2023-07-28T08:16:39;100173.78;;;18.91;100.00
77147;BME280;66121;52.584;9.694;2023-07-28T08:19:04;100174.06;;;19.05;100.00
77147;BME280;66121;52.584;9.694;2023-07-28T08:21:30;100191.00;;;19.23;100.00
77147;BME280;66121;52.584;9.694;2023-07-28T08:23:56;100169.84;;;19.22;100.00
77147;BME280;66121;52.584;9.694;2023-07-28T08:26:21;100189.59;;;19.41;100.00
77147;BME280;66121;52.584;9.694;2023-07-28T08:28:47;100171.22;;;19.18;100.00
77147;BME280;66121;52.584;9.694;2023-07-28T08:31:15;100182.47;;;19.27;100.00
77147;BME280;66121;52.584;9.694;2023-07-28T08:33:41;100194.28;;;19.22;100.00
77147;BME280;66121;52.584;9.694;2023-07-28T08:36:06;100189.16;;;19.29;100.00
77147;BME280;66121;52.584;9.694;2023-07-28T08:38:32;100195.25;;;19.50;100.00
77147;BME280;66121;52.584;9.694;2023-07-28T08:40:57;100193.56;;;19.52;100.00
77147;BME280;66121;52.584;9.694;2023-07-28T08:43:23;100186.75;;;19.53;100.00
77147;BME280;66121;52.584;9.694;2023-07-28T08:45:49;100198.56;;;19.57;100.00
77147;BME280;66121;52.584;9.694;2023-07-28T08:48:15;100174.91;;;19.49;100.00
77147;BME280;66121;52.584;9.694;2023-07-28T08:50:40;100174.44;;;19.51;100.00
77147;BME280;66121;52.584;9.694;2023-07-28T08:53:06;100185.56;;;19.63;100.00
77147;BME280;66121;52.584;9.694;2023-07-28T08:55:31;100213.09;;;19.86;100.00
77147;BME280;66121;52.584;9.694;2023-07-28T08:58:16;100185.25;;;19.92;100.00
77147;BME280;66121;52.584;9.694;2023-07-28T09:00:42;100217.88;;;20.38;100.00
77147;BME280;66121;52.584;9.694;2023-07-28T09:03:10;100217.31;;;20.52;100.00
77147;BME280;66121;52.584;9.694;2023-07-28T09:05:36;100214.41;;;20.74;100.00
77147;BME280;66121;52.584;9.694;2023-07-28T09:08:01;100209.28;;;20.82;100.00
77147;BME280;66121;52.584;9.694;2023-07-28T09:10:40;100209.13;;;20.76;100.00
77147;BME280;66121;52.584;9.694;2023-07-28T09:13:09;100218.91;;;20.72;100.00
77147;BME280;66121;52.584;9.694;2023-07-28T09:15:36;100225.94;;;20.76;100.00
77147;BME280;66121;52.584;9.694;2023-07-28T09:18:01;100228.28;;;20.87;100.00
77147;BME280;66121;52.584;9.694;2023-07-28T09:20:36;100228.84;;;21.40;100.00
77147;BME280;66121;52.584;9.694;2023-07-28T09:23:02;100191.56;;;21.57;100.00
77147;BME280;66121;52.584;9.694;2023-07-28T09:25:29;100220.19;;;22.49;100.00
77147;BME280;66121;52.584;9.694;2023-07-28T09:27:55;100208.09;;;22.24;98.95
77147;BME280;66121;52.584;9.694;2023-07-28T09:30:21;100211.53;;;22.28;97.79
77147;BME280;66121;52.584;9.694;2023-07-28T09:32:54;100220.06;;;22.01;95.78
77147;BME280;66121;52.584;9.694;2023-07-28T09:35:21;100214.16;;;21.81;98.24
77147;BME280;66121;52.584;9.694;2023-07-28T09:37:48;100214.31;;;21.87;98.86
77147;BME280;66121;52.584;9.694;2023-07-28T09:40:17;100217.53;;;22.45;95.75
77147;BME280;66121;52.584;9.694;2023-07-28T09:42:44;100182.34;;;22.82;95.42
77147;BME280;66121;52.584;9.694;2023-07-28T09:45:14;100193.72;;;23.12;93.20
77147;BME280;66121;52.584;9.694;2023-07-28T09:47:40;100217.34;;;23.29;92.64
77147;BME280;66121;52.584;9.694;2023-07-28T09:50:08;100188.22;;;23.32;87.17
77147;BME280;66121;52.584;9.694;2023-07-28T09:52:38;100208.72;;;23.08;86.57
77147;BME280;66121;52.584;9.694;2023-07-28T09:55:07;100226.00;;;23.78;85.87
77147;BME280;66121;52.584;9.694;2023-07-28T09:57:39;100225.34;;;24.12;86.83
77147;BME280;66121;52.584;9.694;2023-07-28T10:00:10;100220.38;;;23.78;83.75
77147;BME280;66121;52.584;9.694;2023-07-28T10:02:36;100214.13;;;23.59;87.61
77147;BME280;66121;52.584;9.694;2023-07-28T10:05:02;100210.47;;;23.30;86.44
77147;BME280;66121;52.584;9.694;2023-07-28T10:07:28;100215.47;;;22.87;91.25
77147;BME280;66121;52.584;9.694;2023-07-28T10:09:54;100209.31;;;22.32;92.24
77147;BME280;66121;52.584;9.694;2023-07-28T10:12:26;100201.28;;;22.07;91.19
77147;BME280;66121;52.584;9.694;2023-07-28T10:15:02;100212.13;;;21.91;91.79
77147;BME280;66121;52.584;9.694;2023-07-28T10:17:32;100214.59;;;21.79;91.08
77147;BME280;66121;52.584;9.694;2023-07-28T10:19:58;100221.94;;;22.46;91.08
77147;BME280;66121;52.584;9.694;2023-07-28T10:22:26;100207.94;;;23.70;86.42
77147;BME280;66121;52.584;9.694;2023-07-28T10:25:00;100218.06;;;24.20;83.33
77147;BME280;66121;52.584;9.694;2023-07-28T10:27:40;100208.50;;;24.03;79.29
77147;BME280;66121;52.584;9.694;2023-07-28T10:30:13;100189.94;;;24.61;82.45
77147;BME280;66121;52.584;9.694;2023-07-28T10:32:44;100206.81;;;24.55;82.37
77147;BME280;66121;52.584;9.694;2023-07-28T10:37:39;100170.28;;;24.31;79.23
77147;BME280;66121;52.584;9.694;2023-07-28T10:40:37;100197.72;;;24.02;77.11
77147;BME280;66121;52.584;9.694;2023-07-28T10:43:04;100213.78;;;24.25;80.54
77147;BME280;66121;52.584;9.694;2023-07-28T10:45:32;100152.66;;;23.87;78.96
77147;BME280;66121;52.584;9.694;2023-07-28T10:47:58;100196.56;;;24.08;80.34
77147;BME280;66121;52.584;9.694;2023-07-28T10:50:32;100202.97;;;23.65;82.24
77147;BME280;66121;52.584;9.694;2023-07-28T10:52:57;100212.38;;;24.06;79.56
77147;BME280;66121;52.584;9.694;2023-07-28T10:55:24;100202.66;;;24.85;79.49
77147;BME280;66121;52.584;9.694;2023-07-28T10:57:51;100151.09;;;24.15;75.49
77147;BME280;66121;52.584;9.694;2023-07-28T11:00:21;100204.81;;;23.97;77.17
77147;BME280;66121;52.584;9.694;2023-07-28T11:02:52;100204.09;;;23.44;78.55
77147;BME280;66121;52.584;9.694;2023-07-28T11:05:28;100208.22;;;23.57;80.59
77147;BME280;66121;52.584;9.694;2023-07-28T11:07:56;100218.03;;;24.84;76.43
77147;BME280;66121;52.584;9.694;2023-07-28T11:10:21;100202.72;;;24.56;74.90
77147;BME280;66121;52.584;9.694;2023-07-28T11:12:49;100200.81;;;24.04;78.13
77147;BME280;66121;52.584;9.694;2023-07-28T11:15:16;100183.56;;;23.29;77.76
77147;BME280;66121;52.584;9.694;2023-07-28T11:17:44;100183.22;;;23.12;80.66
77147;BME280;66121;52.584;9.694;2023-07-28T11:20:14;100207.72;;;23.59;79.03
77147;BME280;66121;52.584;9.694;2023-07-28T11:22:40;100192.63;;;24.84;78.57
77147;BME280;66121;52.584;9.694;2023-07-28T11:25:06;100171.88;;;25.08;75.22
77147;BME280;66121;52.584;9.694;2023-07-28T11:27:35;100202.69;;;25.31;72.54
77147;BME280;66121;52.584;9.694;2023-07-28T11:30:01;100203.69;;;25.08;75.41
77147;BME280;66121;52.584;9.694;2023-07-28T11:32:29;100170.41;;;24.22;74.37
77147;BME280;66121;52.584;9.694;2023-07-28T11:34:55;100196.00;;;23.75;79.04
77147;BME280;66121;52.584;9.694;2023-07-28T11:37:21;100201.53;;;24.28;75.57
77147;BME280;66121;52.584;9.694;2023-07-28T11:39:46;100208.69;;;25.19;73.52
77147;BME280;66121;52.584;9.694;2023-07-28T11:42:13;100183.38;;;25.70;73.28
77147;BME280;66121;52.584;9.694;2023-07-28T11:44:38;100203.91;;;26.22;69.46
77147;BME280;66121;52.584;9.694;2023-07-28T11:47:05;100196.00;;;26.32;68.07
77147;BME280;66121;52.584;9.694;2023-07-28T11:49:30;100157.19;;;26.38;67.91
77147;BME280;66121;52.584;9.694;2023-07-28T11:51:56;100184.03;;;26.53;65.10
77147;BME280;66121;52.584;9.694;2023-07-28T11:54:25;100189.78;;;27.12;62.84
77147;BME280;66121;52.584;9.694;2023-07-28T11:56:53;100175.75;;;26.81;66.12
77147;BME280;66121;52.584;9.694;2023-07-28T11:59:19;100187.63;;;26.48;66.12
77147;BME280;66121;52.584;9.694;2023-07-28T12:02:03;100194.91;;;26.23;67.31
77147;BME280;66121;52.584;9.694;2023-07-28T12:04:31;100185.09;;;26.19;66.92
77147;BME280;66121;52.584;9.694;2023-07-28T12:09:55;100185.94;;;26.73;66.05
77147;BME280;66121;52.584;9.694;2023-07-28T12:12:26;100172.69;;;26.90;67.01
77147;BME280;66121;52.584;9.694;2023-07-28T12:14:52;100185.97;;;25.74;64.46
77147;BME280;66121;52.584;9.694;2023-07-28T12:17:19;100188.13;;;25.13;65.64
77147;BME280;66121;52.584;9.694;2023-07-28T12:20:05;100197.63;;;24.95;67.85
77147;BME280;66121;52.584;9.694;2023-07-28T12:22:40;100145.28;;;25.66;66.40
77147;BME280;66121;52.584;9.694;2023-07-28T12:25:06;100199.19;;;26.50;62.69
77147;BME280;66121;52.584;9.694;2023-07-28T12:27:31;100202.00;;;26.45;63.54
77147;BME280;66121;52.584;9.694;2023-07-28T12:29:57;100202.84;;;25.42;64.15
77147;BME280;66121;52.584;9.694;2023-07-28T12:32:22;100197.50;;;25.04;65.94
77147;BME280;66121;52.584;9.694;2023-07-28T12:34:50;100197.50;;;25.04;67.41
77147;BME280;66121;52.584;9.694;2023-07-28T12:37:17;100205.41;;;25.20;66.37
77147;BME280;66121;52.584;9.694;2023-07-28T12:39:42;100199.09;;;25.31;67.83
77147;BME280;66121;52.584;9.694;2023-07-28T12:42:09;100181.53;;;25.21;69.76
77147;BME280;66121;52.584;9.694;2023-07-28T12:44:36;100191.69;;;25.13;67.63
77147;BME280;66121;52.584;9.694;2023-07-28T12:47:03;100205.06;;;25.58;71.29